Time;durP1;ratioP1;P1;durP2;ratioP2;P2;SDS_P1;SDS_P2;PMS_P1;PMS_P2;Temp;Humidity;BMP_temperature;BMP_pressure;BME280_temperature;BME280_humidity;BME280_pressure;Samples;Min_cycle;Max_cycle;Signal;HPM_P1;HPM_P2
2023/07/31 00:00:14;;;;;;;5.20;3.67;;;16.00;99.90;;;;;;5011800;28;20347;-63
2023/07/31 00:02:41;;;;;;;7.53;3.95;;;16.10;99.90;;;;;;5012955;28;20079;-64
2023/07/31 00:05:08;;;;;;;7.68;4.32;;;16.30;99.90;;;;;;5012731;28;20428;-63
2023/07/31 00:07:34;;;;;;;6.40;4.10;;;16.10;99.90;;;;;;5001649;28;20052;-64
2023/07/31 00:10:00;;;;;;;4.50;3.55;;;16.00;99.90;;;;;;4998656;28;20045;-64
2023/07/31 00:12:25;;;;;;;5.55;3.97;;;16.10;99.90;;;;;;5011679;28;20049;-64
2023/07/31 00:14:51;;;;;;;5.30;3.60;;;16.00;99.90;;;;;;4997170;28;20172;-63
2023/07/31 00:17:18;;;;;;;5.20;3.58;;;15.80;99.90;;;;;;5012173;28;20083;-63
2023/07/31 00:19:45;;;;;;;7.75;4.10;;;15.90;99.90;;;;;;4994967;28;20134;-63
2023/07/31 00:22:11;;;;;;;5.13;3.30;;;16.10;99.90;;;;;;5014149;28;20466;-62
2023/07/31 00:24:37;;;;;;;6.60;3.70;;;15.70;99.90;;;;;;5003458;28;20041;-63
2023/07/31 00:27:03;;;;;;;5.80;4.32;;;15.90;99.90;;;;;;4979850;28;20646;-63
2023/07/31 00:29:29;;;;;;;5.47;4.13;;;15.60;99.90;;;;;;5011697;28;20464;-63
2023/07/31 00:31:54;;;;;;;5.35;4.28;;;15.80;99.90;;;;;;5001773;28;20400;-64
2023/07/31 00:34:21;;;;;;;7.03;5.13;;;15.60;99.90;;;;;;5010179;28;20593;-64
2023/07/31 00:36:48;;;;;;;7.45;4.63;;;15.90;99.90;;;;;;4995743;28;20091;-64
2023/07/31 00:39:13;;;;;;;8.00;5.00;;;15.70;99.90;;;;;;4991741;28;20043;-63
2023/07/31 00:41:39;;;;;;;5.38;4.40;;;15.90;99.90;;;;;;4996579;28;20565;-63
2023/07/31 00:44:05;;;;;;;6.63;4.53;;;15.90;99.90;;;;;;5011464;28;20387;-64
2023/07/31 00:46:30;;;;;;;8.65;4.28;;;15.80;99.90;;;;;;5011638;28;20278;-63
2023/07/31 00:48:57;;;;;;;4.53;3.65;;;15.80;99.90;;;;;;5010480;28;20048;-63
2023/07/31 00:51:22;;;;;;;5.00;3.45;;;15.90;99.90;;;;;;5014303;28;20526;-63
2023/07/31 00:53:48;;;;;;;3.85;3.03;;;16.00;99.90;;;;;;5011166;28;20033;-64
2023/07/31 00:56:15;;;;;;;4.35;3.50;;;16.10;99.90;;;;;;4997897;28;20127;-63
2023/07/31 00:58:41;;;;;;;5.85;3.50;;;15.90;99.90;;;;;;5013761;28;20053;-63
2023/07/31 01:01:06;;;;;;;7.80;3.55;;;16.00;99.90;;;;;;4995094;28;20094;-63
2023/07/31 01:03:32;;;;;;;5.80;3.72;;;15.70;99.90;;;;;;5011191;28;20138;-65
2023/07/31 01:06:01;;;;;;;4.05;3.75;;;15.60;99.90;;;;;;5013485;28;20037;-64
2023/07/31 01:08:37;;;;;;;6.15;4.30;;;15.70;99.90;;;;;;5012037;28;20128;-64
2023/07/31 01:11:30;;;;;;;5.18;4.00;;;15.50;99.90;;;;;;5012340;28;20438;-64
2023/07/31 01:13:57;;;;;;;5.13;4.60;;;15.50;99.90;;;;;;5011038;28;20050;-65
2023/07/31 01:16:23;;;;;;;6.22;4.93;;;15.90;99.90;;;;;;5011922;28;20044;-63
2023/07/31 01:18:48;;;;;;;6.05;4.90;;;15.40;99.90;;;;;;5003217;28;20095;-64
2023/07/31 01:21:35;;;;;;;3.97;3.55;;;15.50;99.90;;;;;;5015877;28;20060;-64
2023/07/31 01:24:29;;;;;;;5.10;4.50;;;15.30;99.90;;;;;;5012820;28;20049;-63
2023/07/31 01:27:06;;;;;;;5.32;4.38;;;15.30;99.90;;;;;;5010795;28;20041;-63
2023/07/31 01:29:49;;;;;;;5.25;3.83;;;15.30;99.90;;;;;;5013158;28;20106;-64
2023/07/31 01:32:17;;;;;;;5.00;4.22;;;15.20;99.90;;;;;;5036731;28;20044;-64
2023/07/31 01:34:44;;;;;;;4.72;4.20;;;15.60;99.90;;;;;;5014545;28;20048;-64
2023/07/31 01:37:09;;;;;;;7.03;4.22;;;15.30;99.90;;;;;;5016476;28;20063;-65
2023/07/31 01:39:35;;;;;;;4.70;4.15;;;15.40;99.90;;;;;;5014360;28;20038;-65
2023/07/31 01:42:01;;;;;;;4.93;3.78;;;15.60;99.90;;;;;;5014419;28;20034;-65
2023/07/31 01:44:27;;;;;;;4.95;3.67;;;15.30;99.90;;;;;;4997033;28;20099;-66
2023/07/31 01:46:53;;;;;;;5.28;4.63;;;15.40;99.90;;;;;;4999151;28;20056;-64
2023/07/31 01:49:20;;;;;;;4.80;4.05;;;15.10;99.90;;;;;;4997968;28;20621;-65
2023/07/31 01:51:46;;;;;;;5.13;4.45;;;15.50;99.90;;;;;;4998713;28;20390;-64
2023/07/31 01:54:11;;;;;;;5.45;4.70;;;15.70;99.90;;;;;;5013819;28;20341;-65
2023/07/31 01:56:37;;;;;;;5.22;4.50;;;15.20;99.90;;;;;;5002469;28;20594;-65
2023/07/31 01:59:03;;;;;;;5.43;3.97;;;15.10;99.90;;;;;;5014124;28;20435;-66
2023/07/31 02:01:28;;;;;;;5.25;4.22;;;15.50;99.90;;;;;;5018146;28;20045;-66
2023/07/31 02:03:54;;;;;;;4.95;4.07;;;15.10;99.90;;;;;;5014045;28;20048;-64
2023/07/31 02:06:20;;;;;;;5.05;4.55;;;15.20;99.90;;;;;;5013463;28;20080;-65
2023/07/31 02:08:45;;;;;;;4.88;4.07;;;15.60;99.90;;;;;;4998862;28;20317;-65
2023/07/31 02:11:11;;;;;;;8.73;4.40;;;15.30;99.90;;;;;;5018326;28;20102;-66
2023/07/31 02:13:37;;;;;;;5.95;3.88;;;15.30;99.90;;;;;;4997398;28;20050;-65
2023/07/31 02:16:02;;;;;;;4.95;3.90;;;15.70;99.90;;;;;;5016304;28;20108;-65
2023/07/31 02:18:28;;;;;;;4.97;3.50;;;15.70;99.90;;;;;;4998097;28;20068;-64
2023/07/31 02:20:54;;;;;;;5.15;4.18;;;15.60;99.90;;;;;;5013277;28;20047;-64
2023/07/31 02:23:19;;;;;;;6.80;3.53;;;15.70;99.90;;;;;;5006466;28;20051;-65
2023/07/31 02:25:46;;;;;;;4.30;3.90;;;15.00;99.90;;;;;;5013485;28;20137;-65
2023/07/31 02:28:12;;;;;;;7.50;4.55;;;15.00;99.90;;;;;;5013545;28;20033;-65
2023/07/31 02:30:38;;;;;;;3.55;3.25;;;15.50;99.90;;;;;;5014194;28;20440;-65
2023/07/31 02:33:05;;;;;;;4.38;3.80;;;15.10;99.90;;;;;;4997016;28;21092;-65
2023/07/31 02:35:31;;;;;;;4.60;3.60;;;15.30;99.90;;;;;;5015271;28;20407;-65
2023/07/31 02:37:56;;;;;;;4.68;3.10;;;15.20;99.90;;;;;;5013438;28;20029;-65
2023/07/31 02:40:23;;;;;;;4.85;3.03;;;15.60;99.90;;;;;;5013358;28;20060;-65
2023/07/31 02:42:49;;;;;;;3.80;2.92;;;15.20;99.90;;;;;;4999234;28;20268;-66
2023/07/31 02:45:14;;;;;;;4.88;3.20;;;15.40;99.90;;;;;;4997982;28;20068;-67
2023/07/31 02:47:40;;;;;;;3.13;2.83;;;15.10;99.90;;;;;;4996685;28;20620;-67
2023/07/31 02:50:06;;;;;;;5.85;3.70;;;15.70;99.90;;;;;;5012885;28;20046;-67
2023/07/31 02:52:32;;;;;;;5.03;3.28;;;15.70;99.90;;;;;;5026334;28;20045;-67
2023/07/31 02:54:58;;;;;;;5.22;3.03;;;15.50;99.90;;;;;;5013408;28;20428;-68
2023/07/31 02:57:24;;;;;;;4.20;2.97;;;15.70;99.90;;;;;;5012969;28;20087;-69
2023/07/31 02:59:49;;;;;;;5.88;3.50;;;15.00;99.90;;;;;;5012938;28;20057;-69
2023/07/31 03:02:15;;;;;;;2.90;2.67;;;15.20;99.90;;;;;;5035580;28;20282;-70
2023/07/31 03:04:42;;;;;;;3.67;2.58;;;15.30;99.90;;;;;;5030495;28;20559;-68
2023/07/31 03:07:08;;;;;;;3.63;2.10;;;14.80;99.90;;;;;;4997480;28;20559;-68
2023/07/31 03:09:34;;;;;;;2.55;2.00;;;15.50;99.90;;;;;;4997836;28;20041;-67
2023/07/31 03:12:00;;;;;;;5.00;2.30;;;14.80;99.90;;;;;;5012702;28;20486;-68
2023/07/31 03:14:28;;;;;;;3.67;2.05;;;14.70;99.90;;;;;;5012728;28;20068;-68
2023/07/31 03:16:54;;;;;;;2.40;1.20;;;15.10;99.90;;;;;;4999910;28;20144;-68
2023/07/31 03:19:20;;;;;;;2.15;1.80;;;15.00;99.90;;;;;;5013997;28;20033;-68
2023/07/31 03:21:45;;;;;;;2.38;1.25;;;15.10;99.90;;;;;;4979493;28;20064;-69
2023/07/31 03:24:12;;;;;;;3.70;1.30;;;15.50;99.90;;;;;;5012051;28;20386;-68
2023/07/31 03:26:38;;;;;;;2.70;1.45;;;15.10;99.90;;;;;;5013182;28;20049;-68
2023/07/31 03:29:03;;;;;;;2.40;1.70;;;15.40;99.90;;;;;;5013059;28;20414;-68
2023/07/31 03:31:29;;;;;;;3.45;1.60;;;15.40;99.90;;;;;;4996366;28;20091;-68
2023/07/31 03:33:55;;;;;;;3.05;1.80;;;15.50;99.90;;;;;;4996659;28;20052;-67
2023/07/31 03:36:20;;;;;;;2.90;1.80;;;14.70;99.90;;;;;;5000362;28;20407;-67
2023/07/31 03:38:46;;;;;;;3.08;1.85;;;14.70;99.90;;;;;;4997099;28;20293;-67
2023/07/31 03:41:12;;;;;;;4.38;2.35;;;14.70;99.90;;;;;;5013596;28;20102;-67
2023/07/31 03:43:38;;;;;;;4.25;2.70;;;15.50;99.90;;;;;;5011484;28;20049;-67
2023/07/31 03:46:03;;;;;;;3.38;2.38;;;15.30;99.90;;;;;;4996168;28;20064;-67
2023/07/31 03:48:29;;;;;;;2.72;2.33;;;15.60;99.90;;;;;;5013167;28;20527;-65
2023/07/31 03:50:55;;;;;;;3.35;2.10;;;14.70;99.90;;;;;;5012748;28;20090;-66
2023/07/31 03:53:21;;;;;;;2.30;1.77;;;15.60;99.90;;;;;;5012270;28;20257;-66
2023/07/31 03:55:47;;;;;;;3.63;2.03;;;14.80;99.90;;;;;;5015405;28;20547;-66
2023/07/31 03:58:12;;;;;;;3.10;1.85;;;14.60;99.90;;;;;;4991877;28;20234;-66
2023/07/31 04:00:40;;;;;;;3.03;2.10;;;14.90;99.90;;;;;;5005216;28;20072;-66
2023/07/31 04:03:05;;;;;;;1.80;1.63;;;14.80;99.90;;;;;;5013291;28;20033;-66
2023/07/31 04:05:32;;;;;;;3.83;2.13;;;15.20;99.90;;;;;;5014418;28;20060;-67
2023/07/31 04:07:58;;;;;;;4.30;1.95;;;15.50;99.90;;;;;;4996979;28;20320;-66
2023/07/31 04:10:24;;;;;;;7.50;1.75;;;14.90;99.90;;;;;;5014977;28;20237;-67
2023/07/31 04:12:50;;;;;;;2.78;1.98;;;14.60;99.90;;;;;;4996382;28;20393;-66
2023/07/31 04:15:15;;;;;;;2.33;2.00;;;15.20;99.90;;;;;;5012322;28;20132;-68
2023/07/31 04:17:41;;;;;;;2.30;1.92;;;15.00;99.90;;;;;;4997067;28;20541;-67
2023/07/31 04:20:07;;;;;;;2.50;1.77;;;14.80;99.90;;;;;;4992411;28;20326;-66
2023/07/31 04:22:33;;;;;;;4.00;1.95;;;14.70;99.90;;;;;;4994635;28;20236;-66
2023/07/31 04:24:59;;;;;;;4.43;2.10;;;14.60;99.90;;;;;;4996896;28;20557;-66
2023/07/31 04:27:25;;;;;;;3.72;2.60;;;14.70;99.90;;;;;;5011874;28;20639;-66
2023/07/31 04:29:50;;;;;;;3.65;2.50;;;14.60;99.90;;;;;;5012317;28;20694;-65
2023/07/31 04:32:16;;;;;;;3.03;2.35;;;15.60;99.90;;;;;;5015509;28;20045;-66
2023/07/31 04:34:43;;;;;;;3.92;2.25;;;15.40;99.90;;;;;;5011838;28;20073;-66
2023/07/31 04:37:08;;;;;;;4.75;2.50;;;14.60;99.90;;;;;;5013608;28;20336;-67
2023/07/31 04:39:34;;;;;;;3.28;2.30;;;15.40;99.90;;;;;;5012279;28;20123;-66
2023/07/31 04:42:00;;;;;;;6.68;3.42;;;15.70;99.90;;;;;;4995214;28;20308;-66
2023/07/31 04:44:25;;;;;;;5.80;3.00;;;14.70;99.90;;;;;;5012036;28;20166;-66
2023/07/31 04:46:51;;;;;;;4.00;2.17;;;15.10;99.90;;;;;;5000331;28;20055;-67
2023/07/31 04:49:17;;;;;;;3.60;2.42;;;15.40;99.90;;;;;;5012278;28;20531;-67
2023/07/31 04:51:42;;;;;;;5.15;2.17;;;15.00;99.90;;;;;;5011338;28;20056;-66
2023/07/31 04:54:08;;;;;;;6.05;2.50;;;15.10;99.90;;;;;;5013150;28;20045;-67
2023/07/31 04:56:34;;;;;;;5.95;2.67;;;14.80;99.90;;;;;;4999165;28;20026;-66
2023/07/31 04:58:59;;;;;;;2.65;1.70;;;14.90;99.90;;;;;;5013506;28;20496;-66
2023/07/31 05:01:25;;;;;;;3.95;2.40;;;15.60;99.90;;;;;;5013957;28;20059;-67
2023/07/31 05:03:51;;;;;;;5.32;2.45;;;15.80;99.90;;;;;;4979147;28;20582;-66
2023/07/31 05:06:17;;;;;;;7.95;3.45;;;14.90;99.90;;;;;;5012262;28;20152;-67
2023/07/31 05:08:42;;;;;;;6.93;3.22;;;14.90;99.90;;;;;;4997941;28;20269;-67
2023/07/31 05:11:08;;;;;;;6.10;2.25;;;14.90;99.90;;;;;;4998746;28;20045;-67
2023/07/31 05:13:34;;;;;;;4.22;2.05;;;15.10;99.90;;;;;;4994781;28;20042;-67
2023/07/31 05:15:59;;;;;;;5.03;2.13;;;15.80;99.90;;;;;;5015080;28;20041;-67
2023/07/31 05:18:25;;;;;;;7.47;2.60;;;14.80;99.90;;;;;;5033452;28;20196;-67
2023/07/31 05:20:51;;;;;;;4.53;2.70;;;15.70;99.90;;;;;;5000320;28;20051;-67
2023/07/31 05:23:16;;;;;;;3.63;1.60;;;15.00;99.90;;;;;;5013514;28;20473;-67
2023/07/31 05:25:42;;;;;;;4.75;1.40;;;15.60;99.90;;;;;;4998354;28;20091;-66
2023/07/31 05:28:08;;;;;;;4.82;2.00;;;15.80;99.90;;;;;;4997455;28;20357;-66
2023/07/31 05:30:33;;;;;;;5.53;1.55;;;14.90;99.90;;;;;;4994051;28;20299;-66
2023/07/31 05:32:59;;;;;;;3.80;1.38;;;15.80;99.90;;;;;;4993995;28;20034;-66
2023/07/31 05:35:31;;;;;;;3.92;1.50;;;15.20;99.90;;;;;;5012970;28;20452;-65
2023/07/31 05:38:01;;;;;;;3.03;1.15;;;15.50;99.90;;;;;;5016233;28;20048;-67
2023/07/31 05:40:27;;;;;;;4.60;1.38;;;15.60;99.90;;;;;;5014481;28;20087;-66
2023/07/31 05:42:53;;;;;;;2.83;1.30;;;15.10;99.90;;;;;;4982062;28;20483;-66
2023/07/31 05:45:18;;;;;;;3.33;1.52;;;15.50;99.90;;;;;;4998882;28;20313;-67
2023/07/31 05:47:44;;;;;;;1.45;0.77;;;15.00;99.90;;;;;;5014917;28;20099;-66
2023/07/31 05:50:10;;;;;;;1.23;0.63;;;15.50;99.90;;;;;;4999418;28;20045;-67
2023/07/31 05:52:35;;;;;;;2.45;0.80;;;15.10;99.90;;;;;;5000781;28;20249;-66
2023/07/31 05:55:01;;;;;;;1.67;0.73;;;15.80;99.90;;;;;;4998649;28;20443;-67
2023/07/31 05:57:27;;;;;;;2.05;0.80;;;15.30;99.90;;;;;;4998491;28;20035;-67
2023/07/31 05:59:53;;;;;;;3.28;0.82;;;16.00;99.90;;;;;;4994129;28;20319;-67
2023/07/31 06:02:19;;;;;;;1.67;0.60;;;15.50;99.90;;;;;;4986045;28;20282;-68
2023/07/31 06:04:44;;;;;;;1.25;0.40;;;15.40;99.90;;;;;;4997505;28;20084;-67
2023/07/31 06:07:10;;;;;;;7.72;0.50;;;15.40;99.90;;;;;;5014703;28;20164;-67
2023/07/31 06:09:36;;;;;;;1.02;0.40;;;15.30;99.90;;;;;;4999538;28;20504;-66
2023/07/31 06:12:02;;;;;;;2.35;0.43;;;15.20;99.90;;;;;;5000258;28;20041;-68
2023/07/31 06:14:28;;;;;;;1.25;0.30;;;16.00;99.90;;;;;;4998402;28;20060;-67
2023/07/31 06:16:54;;;;;;;2.05;0.30;;;15.10;99.90;;;;;;5014113;28;20662;-67
2023/07/31 06:19:20;;;;;;;2.78;0.50;;;16.00;99.90;;;;;;4997479;28;20060;-66
2023/07/31 06:21:46;;;;;;;1.48;0.20;;;15.90;99.90;;;;;;4998011;28;20452;-66
2023/07/31 06:24:13;;;;;;;0.80;0.22;;;14.90;99.90;;;;;;4981730;28;20327;-67
2023/07/31 06:26:38;;;;;;;0.47;0.20;;;15.60;99.90;;;;;;4997159;28;20061;-66
2023/07/31 06:29:04;;;;;;;2.45;0.30;;;16.00;99.90;;;;;;4997597;28;20049;-68
2023/07/31 06:31:29;;;;;;;0.63;0.30;;;16.00;99.90;;;;;;5013982;28;20304;-67
2023/07/31 06:33:55;;;;;;;1.45;0.40;;;16.10;99.90;;;;;;4998150;28;20160;-66
2023/07/31 06:36:21;;;;;;;1.63;0.45;;;15.50;99.90;;;;;;5013374;28;20041;-66
2023/07/31 06:38:47;;;;;;;0.70;0.50;;;15.30;99.90;;;;;;5013467;28;20407;-67
2023/07/31 06:41:13;;;;;;;0.80;0.52;;;15.10;99.90;;;;;;5014055;28;20648;-66
2023/07/31 06:43:39;;;;;;;1.08;0.50;;;15.10;99.90;;;;;;4997735;28;20451;-67
2023/07/31 06:46:10;;;;;;;0.82;0.50;;;16.20;99.90;;;;;;5014223;28;20206;-67
2023/07/31 06:48:39;;;;;;;0.90;0.50;;;15.70;99.90;;;;;;4998004;28;20699;-67
2023/07/31 06:51:05;;;;;;;1.38;0.50;;;15.40;99.90;;;;;;5013500;28;20376;-66
2023/07/31 06:53:30;;;;;;;1.65;0.50;;;16.30;99.90;;;;;;4981066;28;20055;-66
2023/07/31 06:55:56;;;;;;;1.27;0.70;;;15.40;99.90;;;;;;5005000;28;20091;-66
2023/07/31 06:58:22;;;;;;;1.00;0.50;;;15.80;99.90;;;;;;5016153;28;20419;-67
2023/07/31 07:00:49;;;;;;;1.73;0.60;;;15.30;99.90;;;;;;4996634;28;20546;-67
2023/07/31 07:03:15;;;;;;;1.90;0.82;;;16.00;99.90;;;;;;4982209;28;20180;-67
2023/07/31 07:05:41;;;;;;;2.83;0.95;;;16.50;99.90;;;;;;5013290;28;20045;-66
2023/07/31 07:08:07;;;;;;;2.35;1.00;;;15.60;99.90;;;;;;4996952;28;20162;-66
2023/07/31 07:10:33;;;;;;;3.10;1.40;;;15.80;99.90;;;;;;5018550;28;20044;-67
2023/07/31 07:12:59;;;;;;;3.08;1.48;;;16.60;99.90;;;;;;4982570;28;20411;-67
2023/07/31 07:15:25;;;;;;;5.95;2.03;;;16.00;99.90;;;;;;5014557;28;20103;-67
2023/07/31 07:17:51;;;;;;;5.93;2.50;;;15.60;99.90;;;;;;5012904;28;20033;-66
2023/07/31 07:20:17;;;;;;;7.82;3.03;;;16.30;99.90;;;;;;5013899;28;20037;-67
2023/07/31 07:22:45;;;;;;;8.32;3.63;;;16.70;99.90;;;;;;5013110;28;20111;-67
2023/07/31 07:25:11;;;;;;;11.80;4.65;;;16.60;99.90;;;;;;4996002;28;20610;-67
2023/07/31 07:27:36;;;;;;;15.05;5.25;;;17.00;99.90;;;;;;4996688;28;20053;-67
2023/07/31 07:30:03;;;;;;;14.52;5.22;;;16.90;99.90;;;;;;5014184;28;20045;-66
2023/07/31 07:32:29;;;;;;;18.40;6.15;;;17.00;99.90;;;;;;4997604;28;20045;-66
2023/07/31 07:34:55;;;;;;;17.33;5.82;;;17.20;99.90;;;;;;4979805;28;20045;-67
2023/07/31 07:37:21;;;;;;;20.02;6.97;;;16.40;99.90;;;;;;4980301;28;20487;-68
2023/07/31 07:39:47;;;;;;;22.17;7.78;;;16.40;99.90;;;;;;5012883;28;20140;-67
2023/07/31 07:42:12;;;;;;;19.15;7.50;;;17.00;99.90;;;;;;4999846;28;20187;-67
2023/07/31 07:44:38;;;;;;;20.52;6.95;;;17.50;99.90;;;;;;5014037;28;20514;-67
2023/07/31 07:47:05;;;;;;;23.77;7.43;;;17.20;99.90;;;;;;5013390;28;20115;-67
2023/07/31 07:49:32;;;;;;;20.25;7.20;;;17.40;99.90;;;;;;5014663;28;20124;-67
2023/07/31 07:51:58;;;;;;;25.42;8.15;;;17.50;99.90;;;;;;4997410;28;20041;-67
2023/07/31 07:54:23;;;;;;;25.80;7.97;;;17.60;99.90;;;;;;5032156;28;20056;-67
2023/07/31 07:56:49;;;;;;;24.25;8.30;;;17.20;99.90;;;;;;4997285;28;20444;-67
2023/07/31 07:59:15;;;;;;;22.33;7.63;;;16.70;99.90;;;;;;5000921;28;20053;-67
2023/07/31 08:01:41;;;;;;;22.65;7.60;;;16.80;99.90;;;;;;5012905;28;20482;-67
2023/07/31 08:04:06;;;;;;;24.50;9.30;;;16.80;99.90;;;;;;4993256;28;20484;-67
2023/07/31 08:06:32;;;;;;;26.90;10.27;;;17.10;99.90;;;;;;5012135;28;20403;-67
2023/07/31 08:08:58;;;;;;;29.55;9.93;;;16.70;99.90;;;;;;5012175;28;20045;-67
2023/07/31 08:11:24;;;;;;;31.80;11.00;;;16.50;99.90;;;;;;5013399;28;20049;-68
2023/07/31 08:13:50;;;;;;;23.25;8.43;;;17.10;99.90;;;;;;4996209;28;20378;-68
2023/07/31 08:16:16;;;;;;;20.98;7.45;;;16.50;99.90;;;;;;4979828;28;20051;-67
2023/07/31 08:18:42;;;;;;;11.20;5.03;;;16.80;99.90;;;;;;5012746;28;20581;-66
2023/07/31 08:21:08;;;;;;;13.57;4.65;;;16.60;99.90;;;;;;5012722;28;20120;-67
2023/07/31 08:23:35;;;;;;;15.70;5.00;;;16.50;99.90;;;;;;5012361;28;20049;-67
2023/07/31 08:26:02;;;;;;;10.57;3.95;;;16.90;99.90;;;;;;5029705;28;20033;-67
2023/07/31 08:28:27;;;;;;;11.45;3.95;;;16.60;99.90;;;;;;4999169;28;20052;-66
2023/07/31 08:30:53;;;;;;;7.85;2.90;;;16.70;99.90;;;;;;4979574;28;20597;-67
2023/07/31 08:33:18;;;;;;;8.23;3.15;;;17.40;99.90;;;;;;5001492;28;20434;-66
2023/07/31 08:35:44;;;;;;;9.05;2.55;;;16.50;99.90;;;;;;5013311;28;20076;-67
2023/07/31 08:38:10;;;;;;;7.40;3.03;;;17.40;99.90;;;;;;5011804;28;20297;-66
2023/07/31 08:40:38;;;;;;;5.80;2.00;;;16.60;99.90;;;;;;5002781;28;20033;-66
2023/07/31 08:43:04;;;;;;;3.65;1.70;;;17.30;99.90;;;;;;5006330;28;20051;-66
2023/07/31 08:45:30;;;;;;;3.63;1.30;;;17.10;99.90;;;;;;5015591;28;20045;-66
2023/07/31 08:47:57;;;;;;;2.85;1.20;;;17.10;99.90;;;;;;5018128;28;20382;-65
2023/07/31 08:50:23;;;;;;;2.40;0.80;;;17.90;99.90;;;;;;5015800;28;20324;-67
2023/07/31 08:52:50;;;;;;;3.63;1.25;;;17.80;99.90;;;;;;5015623;28;20251;-66
2023/07/31 08:55:16;;;;;;;4.25;1.30;;;17.00;99.90;;;;;;5015995;28;20474;-66
2023/07/31 08:57:43;;;;;;;2.70;1.13;;;17.10;99.90;;;;;;5016639;28;20045;-66
2023/07/31 09:00:10;;;;;;;3.53;1.10;;;17.50;99.90;;;;;;5017043;28;20045;-67
2023/07/31 09:03:08;;;;;;;2.03;0.98;;;17.40;99.90;;;;;;4999544;28;20053;-67
2023/07/31 09:05:36;;;;;;;2.97;0.93;;;17.50;99.90;;;;;;5017178;28;20091;-66
2023/07/31 09:08:04;;;;;;;2.63;0.80;;;18.40;99.90;;;;;;5017696;28;20364;-67
2023/07/31 09:10:30;;;;;;;2.08;0.70;;;18.30;99.90;;;;;;5002710;28;20120;-68
2023/07/31 09:12:56;;;;;;;1.27;0.57;;;18.10;99.90;;;;;;4999911;28;20210;-67
2023/07/31 09:15:23;;;;;;;1.92;0.55;;;18.40;99.90;;;;;;5018382;28;20565;-67
2023/07/31 09:18:00;;;;;;;2.28;0.50;;;18.80;99.90;;;;;;5017117;28;20796;-65
2023/07/31 09:20:25;;;;;;;1.23;0.52;;;18.10;99.90;;;;;;5017543;28;20041;-67
2023/07/31 09:22:51;;;;;;;2.55;0.70;;;17.50;99.90;;;;;;4999113;28;20180;-67
2023/07/31 09:25:18;;;;;;;2.47;0.55;;;18.00;99.90;;;;;;5016242;28;20575;-65
2023/07/31 09:27:47;;;;;;;1.10;0.50;;;17.70;99.90;;;;;;5014651;28;20290;-66
2023/07/31 09:30:12;;;;;;;3.10;0.70;;;17.70;99.90;;;;;;4998031;28;20056;-67
2023/07/31 09:32:38;;;;;;;1.40;0.70;;;17.80;99.90;;;;;;5015507;28;20068;-67
2023/07/31 09:35:30;;;;;;;1.58;0.40;;;18.80;99.90;;;;;;5004407;28;20033;-67
2023/07/31 09:38:05;;;;;;;1.92;0.40;;;18.30;99.90;;;;;;5016011;28;20573;-68
2023/07/31 09:40:32;;;;;;;1.83;0.50;;;17.90;99.90;;;;;;5016428;28;20086;-66
2023/07/31 09:43:04;;;;;;;2.50;0.40;;;17.90;99.90;;;;;;5015743;28;20068;-67
2023/07/31 09:45:34;;;;;;;0.77;0.33;;;18.70;99.90;;;;;;5014395;28;20168;-67
2023/07/31 09:48:00;;;;;;;2.40;0.30;;;17.90;99.90;;;;;;5001677;28;20242;-67
2023/07/31 09:50:26;;;;;;;1.10;0.30;;;18.70;99.90;;;;;;4997987;28;20033;-67
2023/07/31 09:52:52;;;;;;;0.68;0.30;;;18.50;99.90;;;;;;5015487;28;20037;-67
2023/07/31 09:55:19;;;;;;;1.10;0.30;;;18.70;99.90;;;;;;5014864;28;20531;-69
2023/07/31 09:57:47;;;;;;;1.30;0.50;;;18.30;99.90;;;;;;5014896;28;20386;-69
2023/07/31 10:00:15;;;;;;;1.02;0.40;;;17.20;99.90;;;;;;4999121;28;20058;-68
2023/07/31 10:02:47;;;;;;;0.63;0.30;;;17.30;99.90;;;;;;5015846;28;20085;-67
2023/07/31 10:05:15;;;;;;;0.82;0.40;;;18.80;99.90;;;;;;5014952;28;20095;-67
2023/07/31 10:07:45;;;;;;;0.82;0.30;;;18.70;99.90;;;;;;5015438;28;20045;-68
2023/07/31 10:10:13;;;;;;;0.88;0.30;;;18.10;99.90;;;;;;5014937;28;20077;-66
2023/07/31 10:12:39;;;;;;;0.95;0.47;;;18.30;99.90;;;;;;5014375;28;20801;-67
2023/07/31 10:15:06;;;;;;;0.50;0.25;;;18.50;99.90;;;;;;4997397;28;20033;-66
2023/07/31 10:17:33;;;;;;;0.73;0.20;;;18.90;99.90;;;;;;5013644;28;20076;-68
2023/07/31 10:20:01;;;;;;;0.43;0.20;;;19.20;99.90;;;;;;5015868;28;20029;-68
2023/07/31 10:22:28;;;;;;;1.08;0.28;;;18.30;99.90;;;;;;5013752;28;20068;-68
2023/07/31 10:24:57;;;;;;;1.63;0.20;;;18.20;99.90;;;;;;4997897;28;20103;-68
2023/07/31 10:27:23;;;;;;;0.43;0.10;;;19.50;99.90;;;;;;5001436;28;20545;-69
2023/07/31 10:29:49;;;;;;;1.55;0.10;;;18.50;99.90;;;;;;4981521;28;20205;-68
2023/07/31 10:32:17;;;;;;;0.28;0.10;;;18.40;99.90;;;;;;5005125;28;20519;-67
2023/07/31 10:34:43;;;;;;;0.20;0.10;;;18.80;99.90;;;;;;5014760;28;20053;-68
2023/07/31 10:37:27;;;;;;;0.25;0.10;;;18.60;99.90;;;;;;5015624;28;20056;-69
2023/07/31 10:39:57;;;;;;;0.55;0.10;;;18.60;99.90;;;;;;5004128;28;20320;-69
2023/07/31 10:42:38;;;;;;;0.20;0.00;;;19.40;99.90;;;;;;5003894;28;20370;-68
2023/07/31 10:45:11;;;;;;;0.30;0.10;;;19.40;99.90;;;;;;5014588;28;20075;-67
2023/07/31 10:47:44;;;;;;;0.20;0.10;;;19.10;99.90;;;;;;5014493;28;20045;-67
2023/07/31 10:50:18;;;;;;;1.25;0.20;;;18.90;99.90;;;;;;4995930;28;20051;-68
2023/07/31 10:52:50;;;;;;;0.30;0.05;;;18.60;99.90;;;;;;5016691;28;20160;-68
2023/07/31 10:55:24;;;;;;;0.97;0.10;;;18.20;99.90;;;;;;5015666;28;20356;-68
2023/07/31 10:57:51;;;;;;;0.00;0.00;;;17.90;99.90;;;;;;5014460;28;20112;-67
2023/07/31 11:00:28;;;;;;;1.30;0.10;;;18.70;99.90;;;;;;4996641;28;20084;-67
2023/07/31 11:03:03;;;;;;;0.20;0.00;;;18.30;99.90;;;;;;5012992;28;20073;-66
2023/07/31 11:05:49;;;;;;;0.47;0.00;;;19.00;99.90;;;;;;5014426;28;20719;-67
2023/07/31 11:08:19;;;;;;;0.40;0.10;;;17.90;99.90;;;;;;5014728;28;20672;-67
2023/07/31 11:10:46;;;;;;;0.38;0.08;;;18.20;99.90;;;;;;5015010;28;20045;-66
2023/07/31 11:13:13;;;;;;;0.00;0.00;;;17.70;99.90;;;;;;5013361;28;20051;-67
2023/07/31 11:15:39;;;;;;;0.57;0.10;;;18.00;99.90;;;;;;5013342;28;20056;-66
2023/07/31 11:18:07;;;;;;;0.20;0.03;;;19.10;99.90;;;;;;5014963;28;20515;-67
2023/07/31 11:20:36;;;;;;;0.30;0.00;;;19.00;99.90;;;;;;5012790;28;20532;-65
2023/07/31 11:23:09;;;;;;;0.90;0.10;;;18.90;99.90;;;;;;4998310;28;20045;-67
2023/07/31 11:25:35;;;;;;;0.95;0.20;;;19.40;99.90;;;;;;5012459;28;20045;-66
2023/07/31 11:28:14;;;;;;;1.08;0.10;;;19.50;99.90;;;;;;5013664;28;20048;-66
2023/07/31 11:30:41;;;;;;;1.60;0.22;;;19.70;99.90;;;;;;5012675;28;20553;-66
2023/07/31 11:33:08;;;;;;;1.20;0.30;;;20.20;99.90;;;;;;5002850;28;20088;-67
2023/07/31 11:35:41;;;;;;;1.08;0.20;;;20.20;99.90;;;;;;5012300;28;20053;-67
2023/07/31 11:38:08;;;;;;;3.60;0.30;;;19.40;99.90;;;;;;5012669;28;20033;-67
2023/07/31 11:40:42;;;;;;;1.15;0.30;;;19.30;99.90;;;;;;5004879;28;20029;-66
2023/07/31 11:43:08;;;;;;;1.48;0.30;;;19.30;99.90;;;;;;4996538;28;20436;-66
2023/07/31 11:45:37;;;;;;;2.38;0.30;;;19.50;99.90;;;;;;4997956;28;20048;-66
2023/07/31 11:48:05;;;;;;;2.97;0.50;;;19.70;99.90;;;;;;5014031;28;20064;-65
2023/07/31 11:50:34;;;;;;;2.53;0.50;;;19.40;99.90;;;;;;5019107;28;20542;-66
2023/07/31 11:53:04;;;;;;;2.90;0.30;;;19.00;99.90;;;;;;5018700;28;20041;-68
2023/07/31 11:55:30;;;;;;;1.23;0.20;;;19.70;99.90;;;;;;5019735;28;20857;-66
2023/07/31 11:57:57;;;;;;;2.65;0.45;;;19.40;99.90;;;;;;5003907;28;20561;-66
2023/07/31 12:00:23;;;;;;;1.73;0.40;;;19.30;99.90;;;;;;5019253;28;20504;-66
2023/07/31 12:02:51;;;;;;;1.67;0.40;;;19.80;99.90;;;;;;5018991;28;20179;-67
2023/07/31 12:05:17;;;;;;;1.80;0.40;;;19.60;99.90;;;;;;5018456;28;20060;-66
2023/07/31 12:07:50;;;;;;;1.92;0.50;;;19.50;99.90;;;;;;5020925;28;20045;-66
2023/07/31 12:10:29;;;;;;;2.40;0.60;;;19.80;99.90;;;;;;5022190;28;20037;-67
2023/07/31 12:13:02;;;;;;;1.90;0.40;;;19.90;99.90;;;;;;5006189;28;20399;-66
2023/07/31 12:15:40;;;;;;;2.58;0.50;;;19.50;99.90;;;;;;5021325;28;20051;-66
2023/07/31 12:18:11;;;;;;;1.63;0.52;;;19.90;99.90;;;;;;5001922;28;20352;-67
2023/07/31 12:21:01;;;;;;;1.25;0.30;;;19.50;99.90;;;;;;5018140;28;20045;-66
2023/07/31 12:23:29;;;;;;;2.25;0.30;;;20.10;99.90;;;;;;5018535;28;20049;-66
2023/07/31 12:26:01;;;;;;;1.80;0.50;;;19.90;99.90;;;;;;5021322;28;20067;-67
2023/07/31 12:28:27;;;;;;;1.65;0.30;;;20.70;99.90;;;;;;5019432;28;20041;-66
2023/07/31 12:30:59;;;;;;;1.15;0.30;;;20.60;99.90;;;;;;5020402;28;20037;-67
2023/07/31 12:33:30;;;;;;;0.90;0.30;;;20.50;99.90;;;;;;5025645;28;20037;-66
2023/07/31 12:35:56;;;;;;;2.03;0.40;;;20.20;99.90;;;;;;5023989;28;20764;-66
2023/07/31 12:38:22;;;;;;;1.90;0.40;;;19.90;99.90;;;;;;5021367;28;20048;-66
2023/07/31 12:40:49;;;;;;;1.75;0.32;;;20.00;99.90;;;;;;5008387;28;20045;-66
2023/07/31 12:43:16;;;;;;;1.50;0.28;;;19.50;99.90;;;;;;5037557;28;20045;-66
2023/07/31 12:45:41;;;;;;;1.30;0.30;;;19.20;99.90;;;;;;5007301;28;20083;-66